createdAt,value
2022-10-26T13:40:25.417Z,15.30
2022-10-26T13:42:59.100Z,15.70
2022-10-26T13:51:50.620Z,17.30
2022-10-26T13:54:29.802Z,17.70
2022-10-26T13:57:10.363Z,18.00
2022-10-26T13:59:43.571Z,18.40
2022-10-26T14:02:24.922Z,18.60
2022-10-26T14:05:05.180Z,18.90
2022-10-26T14:07:55.618Z,19.10
2022-10-26T14:10:38.079Z,19.40
2022-10-26T14:13:16.883Z,19.60
2022-10-26T14:15:46.125Z,19.80
2022-10-26T14:18:26.594Z,19.90
2022-10-26T14:21:20.504Z,20.00
2022-10-26T14:23:56.466Z,20.20
2022-10-26T14:26:46.478Z,20.30
2022-10-26T14:29:20.486Z,20.40
2022-10-26T14:31:50.254Z,20.50
2022-10-26T14:34:19.301Z,20.60
2022-10-26T14:36:59.014Z,20.70
2022-10-26T14:39:34.239Z,20.80
2022-10-26T14:42:29.066Z,20.80
2022-10-26T14:44:57.501Z,20.90
2022-10-26T14:47:31.170Z,20.90
2022-10-26T14:52:35.879Z,21.00
2022-10-26T14:55:13.536Z,21.10
2022-10-26T14:57:43.168Z,21.10
2022-10-26T15:00:25.273Z,21.10
2022-10-26T15:02:54.591Z,21.20
2022-10-26T15:05:35.735Z,21.20
2022-10-26T15:08:03.795Z,21.30
2022-10-26T15:10:37.163Z,21.30
2022-10-26T15:13:19.876Z,21.30
2022-10-26T15:15:49.890Z,21.30
2022-10-26T15:18:30.984Z,21.30
2022-10-26T15:20:58.430Z,21.30
2022-10-26T15:23:28.117Z,21.40
2022-10-26T15:25:58.844Z,21.30
2022-10-26T15:28:42.507Z,21.40
2022-10-26T15:31:12.790Z,21.40
2022-10-26T15:33:53.343Z,21.40
2022-10-26T15:36:22.523Z,21.40
2022-10-26T15:38:49.954Z,21.40
2022-10-26T15:41:27.180Z,21.40
2022-10-26T15:43:57.466Z,21.50
2022-10-26T15:46:26.034Z,21.50
2022-10-26T15:48:59.565Z,21.50
2022-10-26T15:51:26.937Z,21.60
2022-10-26T15:53:54.173Z,21.50
2022-10-26T15:56:24.217Z,21.60
2022-10-26T15:58:53.079Z,21.60
2022-10-26T16:01:29.150Z,21.60
2022-10-26T16:03:56.557Z,21.60
2022-10-26T16:06:35.876Z,21.60
2022-10-26T16:09:07.405Z,21.60
2022-10-26T16:11:34.523Z,21.60
2022-10-26T16:14:03.811Z,21.70
2022-10-26T16:16:31.676Z,21.60
2022-10-26T16:19:18.560Z,21.70
2022-10-26T16:30:14.510Z,21.70
2022-10-26T16:32:42.552Z,21.70
2022-10-26T16:35:11.292Z,21.70
2022-10-26T16:37:38.761Z,21.70
2022-10-26T16:40:08.351Z,21.70
2022-10-26T16:42:36.179Z,21.70
2022-10-26T16:45:04.131Z,21.70
2022-10-26T16:47:37.727Z,21.70
2022-10-26T16:50:05.485Z,21.70
2022-10-26T16:52:35.383Z,21.70
2022-10-26T16:55:03.752Z,21.70
2022-10-26T16:57:30.815Z,21.70
2022-10-26T16:59:58.521Z,21.70
2022-10-26T17:02:25.670Z,21.80
2022-10-26T17:04:52.923Z,21.80
2022-10-26T17:07:19.991Z,21.80
2022-10-26T17:09:47.138Z,21.80
2022-10-26T17:12:14.514Z,21.90
2022-10-26T17:14:41.863Z,21.90
2022-10-26T17:17:08.918Z,21.90
2022-10-26T17:19:36.178Z,21.90
2022-10-26T17:22:06.372Z,21.90
2022-10-26T17:24:36.261Z,21.90
2022-10-26T17:27:03.476Z,21.90
2022-10-26T17:29:30.676Z,22.00
2022-10-26T17:31:57.688Z,21.90
2022-10-26T17:34:24.746Z,21.90
2022-10-26T17:36:51.969Z,22.00
2022-10-26T17:39:20.044Z,21.90
2022-10-26T17:41:47.626Z,22.00
2022-10-26T17:44:14.783Z,22.00
2022-10-26T17:46:41.961Z,22.00
2022-10-26T17:49:09.083Z,21.90
2022-10-26T17:51:37.667Z,21.90
2022-10-26T17:54:05.887Z,22.00
2022-10-26T17:56:34.640Z,22.00
2022-10-26T17:59:05.151Z,22.00
2022-10-26T18:01:33.316Z,22.00
2022-10-26T18:04:01.413Z,22.00
2022-10-26T18:06:29.093Z,21.90
2022-10-26T18:08:59.572Z,22.00
2022-10-26T18:11:28.406Z,22.00
2022-10-26T18:13:56.752Z,22.00
2022-10-26T18:16:26.632Z,22.00
2022-10-26T18:19:02.901Z,21.90
2022-10-26T18:21:33.080Z,22.00
2022-10-26T18:24:00.479Z,21.90
2022-10-26T18:26:30.119Z,22.00
2022-10-26T18:28:59.595Z,21.90
2022-10-26T18:31:29.319Z,22.00
2022-10-26T18:33:59.415Z,22.00
2022-10-26T18:36:27.863Z,22.00
2022-10-26T18:38:55.609Z,22.00
2022-10-26T18:41:24.334Z,21.90
2022-10-26T18:43:54.411Z,21.90
2022-10-26T18:46:25.591Z,21.90
2022-10-26T18:48:54.058Z,21.90
2022-10-26T18:51:25.968Z,21.90
2022-10-26T18:53:53.191Z,22.00
2022-10-26T18:56:23.099Z,21.90
2022-10-26T18:58:53.517Z,21.90
2022-10-26T19:01:26.287Z,21.90
2022-10-26T19:04:01.649Z,21.90
2022-10-26T19:06:32.872Z,21.90
2022-10-26T19:09:00.482Z,21.90
2022-10-26T19:11:30.175Z,21.90
2022-10-26T19:13:57.368Z,21.90
2022-10-26T19:19:17.314Z,21.90
2022-10-26T19:21:47.386Z,21.90
2022-10-26T19:24:19.611Z,21.90
2022-10-26T19:26:48.494Z,21.90
2022-10-26T19:29:18.506Z,21.90
2022-10-26T19:31:47.231Z,21.90
2022-10-26T19:34:16.175Z,21.90
2022-10-26T19:36:47.493Z,21.90
2022-10-26T19:39:17.176Z,21.90
2022-10-26T19:41:45.885Z,21.90
2022-10-26T19:44:14.720Z,21.90
2022-10-26T19:46:43.449Z,21.90
2022-10-26T19:49:12.789Z,21.90
2022-10-26T19:51:39.975Z,21.90
2022-10-26T19:54:07.865Z,21.90
2022-10-26T19:56:37.276Z,21.90
2022-10-26T19:59:06.373Z,21.90
2022-10-26T20:01:34.347Z,21.90
2022-10-26T20:04:02.785Z,21.90
2022-10-26T20:06:31.008Z,21.90
2022-10-26T20:08:59.798Z,21.90
2022-10-26T20:11:27.305Z,21.90
2022-10-26T20:13:57.488Z,21.90
2022-10-26T20:16:25.440Z,21.90
2022-10-26T20:18:52.599Z,21.90
2022-10-26T20:21:20.012Z,21.90
2022-10-26T20:23:47.383Z,21.90
2022-10-26T20:26:18.429Z,21.90
2022-10-26T20:28:51.215Z,21.90
2022-10-26T20:31:19.701Z,21.90
2022-10-26T20:33:53.312Z,21.90
2022-10-26T20:36:20.927Z,21.90
2022-10-26T20:38:48.912Z,21.90
2022-10-26T20:41:16.568Z,21.90
2022-10-26T20:43:44.055Z,21.90
2022-10-26T20:46:20.871Z,21.90
2022-10-26T20:48:48.395Z,21.90
2022-10-26T20:51:44.508Z,21.90
2022-10-26T20:54:45.515Z,21.90
2022-10-26T20:57:18.222Z,21.90
2022-10-26T20:59:52.502Z,21.90
2022-10-26T21:02:21.183Z,21.90
2022-10-26T21:04:48.430Z,21.90
2022-10-26T21:07:15.512Z,21.90
2022-10-26T21:09:42.890Z,21.90
2022-10-26T21:12:09.970Z,21.90
2022-10-26T21:14:40.936Z,21.80
2022-10-26T21:17:09.148Z,21.90
2022-10-26T21:19:36.738Z,21.90
2022-10-26T21:22:04.029Z,21.90
2022-10-26T21:24:31.177Z,21.90
2022-10-26T21:26:58.231Z,21.90
2022-10-26T21:29:25.338Z,21.90
2022-10-26T21:31:52.722Z,21.90
2022-10-26T21:34:19.778Z,21.90
2022-10-26T21:36:47.554Z,21.90
2022-10-26T21:39:14.710Z,21.90
2022-10-26T21:41:43.339Z,21.90
2022-10-26T21:44:23.503Z,21.90
2022-10-26T21:46:53.086Z,21.90
2022-10-26T21:49:20.171Z,21.90
2022-10-26T21:51:47.391Z,21.90
2022-10-26T21:54:14.455Z,21.90
2022-10-26T21:56:41.768Z,21.90
2022-10-26T21:59:08.988Z,21.90
2022-10-26T22:01:36.745Z,21.90
2022-10-26T22:04:04.236Z,21.80
2022-10-26T22:06:31.508Z,21.90
2022-10-26T22:08:58.480Z,21.90
2022-10-26T22:11:26.012Z,21.90
2022-10-26T22:13:53.485Z,21.90
2022-10-26T22:16:23.451Z,21.90
2022-10-26T22:18:53.010Z,21.90
2022-10-26T22:21:23.693Z,21.90
2022-10-26T22:23:51.767Z,21.90
2022-10-26T22:26:22.297Z,21.90
2022-10-26T22:28:53.008Z,21.90
2022-10-26T22:31:24.844Z,21.80
2022-10-26T22:34:01.998Z,21.90
2022-10-26T22:36:32.702Z,21.80
2022-10-26T22:39:00.625Z,21.90
2022-10-26T22:41:28.034Z,21.90
2022-10-26T22:43:55.119Z,21.90
2022-10-26T22:46:25.617Z,21.90
2022-10-26T22:48:59.425Z,21.90
2022-10-26T22:51:30.826Z,21.90
2022-10-26T22:54:00.516Z,21.90
2022-10-26T22:56:32.092Z,21.90
2022-10-26T22:58:59.931Z,21.90
2022-10-26T23:01:33.751Z,21.80
2022-10-26T23:04:01.053Z,21.90
2022-10-26T23:06:31.032Z,21.90
2022-10-26T23:08:58.777Z,21.80
2022-10-26T23:11:28.696Z,21.90
2022-10-26T23:14:03.507Z,21.80
2022-10-26T23:16:31.478Z,21.80
2022-10-26T23:18:59.799Z,21.90
2022-10-26T23:21:29.414Z,21.90
2022-10-26T23:23:57.350Z,21.90
2022-10-26T23:26:25.316Z,21.80
2022-10-26T23:28:52.626Z,21.80
2022-10-26T23:31:22.923Z,21.80
2022-10-26T23:33:51.270Z,21.80
2022-10-26T23:36:21.054Z,21.90
2022-10-26T23:38:49.348Z,21.80
2022-10-26T23:41:16.803Z,21.90
2022-10-26T23:43:44.166Z,21.80
2022-10-26T23:46:11.534Z,21.90
2022-10-26T23:48:38.849Z,21.80
2022-10-26T23:51:06.111Z,21.80
2022-10-26T23:53:33.318Z,21.80
2022-10-26T23:56:00.288Z,21.80
2022-10-26T23:58:27.621Z,21.80
